Time;durP1;ratioP1;P1;durP2;ratioP2;P2;SDS_P1;SDS_P2;PMS_P1;PMS_P2;Temp;Humidity;BMP_temperature;BMP_pressure;BME280_temperature;BME280_humidity;BME280_pressure;Samples;Min_cycle;Max_cycle;Signal;HPM_P1;HPM_P2
2023/04/02 00:01:01;;;;;;;23.50;18.80;;;9.60;99.90;;;;;;5092885;28;20172;-74
2023/04/02 00:03:42;;;;;;;22.03;18.17;;;9.50;99.90;;;;;;5093019;28;20175;-74
2023/04/02 00:06:31;;;;;;;23.80;19.17;;;9.40;99.90;;;;;;5092841;28;20172;-75
2023/04/02 00:09:22;;;;;;;26.83;19.30;;;9.30;99.90;;;;;;5093047;28;20176;-74
2023/04/02 00:11:53;;;;;;;28.10;19.73;;;9.30;99.90;;;;;;5092306;28;20176;-75
2023/04/02 00:14:28;;;;;;;27.97;19.83;;;9.20;99.90;;;;;;5092815;28;20623;-74
2023/04/02 00:16:56;;;;;;;26.20;20.00;;;9.20;99.90;;;;;;5092695;28;20576;-74
2023/04/02 00:19:30;;;;;;;26.63;20.80;;;9.30;99.90;;;;;;5092481;28;20247;-74
2023/04/02 00:21:57;;;;;;;31.23;21.87;;;9.20;99.90;;;;;;5092221;28;20217;-74
2023/04/02 00:24:23;;;;;;;28.53;20.97;;;9.30;99.90;;;;;;5092730;28;20308;-74
2023/04/02 00:26:51;;;;;;;31.07;22.00;;;9.30;99.90;;;;;;5095775;28;20662;-73
2023/04/02 00:29:19;;;;;;;30.63;22.17;;;9.30;99.90;;;;;;5096439;28;20182;-73
2023/04/02 00:31:50;;;;;;;28.30;20.47;;;9.10;99.90;;;;;;5096380;28;20195;-72
2023/04/02 00:34:29;;;;;;;29.90;20.97;;;9.10;99.90;;;;;;5096194;28;20172;-73
2023/04/02 00:36:55;;;;;;;29.17;21.57;;;9.20;99.90;;;;;;5095718;28;20166;-74
2023/04/02 00:39:24;;;;;;;19.50;15.90;;;9.20;99.90;;;;;;5096384;28;20245;-74
2023/04/02 00:41:53;;;;;;;18.70;15.23;;;9.20;99.90;;;;;;5096114;28;20764;-73
2023/04/02 00:44:20;;;;;;;18.63;15.07;;;9.20;99.90;;;;;;5096090;28;20187;-74
2023/04/02 00:46:48;;;;;;;17.10;14.27;;;9.10;99.90;;;;;;5095989;28;20297;-74
2023/04/02 00:49:19;;;;;;;19.63;14.17;;;9.00;99.90;;;;;;5095881;28;20203;-73
2023/04/02 00:51:52;;;;;;;17.93;14.80;;;9.00;99.90;;;;;;5095720;28;20188;-73
2023/04/02 00:54:20;;;;;;;18.90;14.93;;;8.90;99.90;;;;;;5078042;28;20531;-74
2023/04/02 00:56:49;;;;;;;17.83;15.03;;;8.90;99.90;;;;;;5095786;28;20504;-74
2023/04/02 00:59:41;;;;;;;19.50;15.87;;;8.90;99.90;;;;;;5095721;28;20276;-74
2023/04/02 01:02:17;;;;;;;21.13;16.17;;;9.00;99.90;;;;;;5095584;28;20512;-73
2023/04/02 01:04:58;;;;;;;17.03;14.37;;;9.00;99.90;;;;;;5077224;28;20172;-74
2023/04/02 01:07:51;;;;;;;18.73;14.67;;;8.90;99.90;;;;;;5095694;28;20160;-73
2023/04/02 01:10:43;;;;;;;17.87;14.80;;;8.80;99.90;;;;;;5095445;28;20175;-73
2023/04/02 01:13:34;;;;;;;18.17;13.80;;;8.70;99.90;;;;;;5095688;28;20187;-74
2023/04/02 01:16:10;;;;;;;18.40;14.27;;;8.70;99.90;;;;;;5095543;28;20179;-73
2023/04/02 01:19:02;;;;;;;21.43;15.93;;;8.70;99.90;;;;;;5094873;28;20223;-73
2023/04/02 01:21:31;;;;;;;20.93;16.23;;;8.70;99.90;;;;;;5064292;28;20721;-73
2023/04/02 01:24:04;;;;;;;20.73;16.17;;;8.70;99.90;;;;;;5095232;28;20183;-74
2023/04/02 01:26:55;;;;;;;20.33;15.40;;;8.70;99.90;;;;;;5095246;28;20183;-74
2023/04/02 01:29:34;;;;;;;15.87;13.10;;;8.70;99.90;;;;;;5095509;28;20184;-74
2023/04/02 01:32:13;;;;;;;15.90;13.33;;;8.60;99.90;;;;;;5095466;28;20176;-75
2023/04/02 01:34:40;;;;;;;15.03;12.80;;;8.60;99.90;;;;;;5094859;28;20174;-73
2023/04/02 01:37:33;;;;;;;14.50;12.40;;;8.50;99.90;;;;;;5094047;28;20198;-73
2023/04/02 01:40:04;;;;;;;14.87;11.97;;;8.60;99.90;;;;;;5094910;28;20298;-73
2023/04/02 01:42:34;;;;;;;18.33;12.90;;;8.60;99.90;;;;;;5095153;28;20167;-73
2023/04/02 01:45:06;;;;;;;13.93;11.83;;;8.50;99.90;;;;;;5094961;28;20651;-73
2023/04/02 01:47:32;;;;;;;13.77;11.83;;;8.60;99.90;;;;;;5094920;28;20225;-73
2023/04/02 01:50:08;;;;;;;13.50;11.80;;;8.50;99.90;;;;;;5094397;28;20176;-74
2023/04/02 01:52:39;;;;;;;18.07;12.63;;;8.50;99.90;;;;;;5094845;28;20193;-72
2023/04/02 01:55:07;;;;;;;17.13;14.07;;;8.50;99.90;;;;;;5094755;28;20199;-75
2023/04/02 01:57:32;;;;;;;19.47;14.50;;;8.50;99.90;;;;;;5094749;28;20176;-74
2023/04/02 02:00:00;;;;;;;20.13;15.13;;;8.40;99.90;;;;;;5094570;28;20207;-73
2023/04/02 02:02:27;;;;;;;18.43;14.50;;;8.40;99.90;;;;;;5094626;28;20685;-73
2023/04/02 02:04:53;;;;;;;20.27;16.00;;;8.40;99.90;;;;;;5094599;28;20172;-74
2023/04/02 02:07:20;;;;;;;19.70;15.23;;;8.30;99.90;;;;;;5094696;28;20194;-73
2023/04/02 02:09:47;;;;;;;20.93;16.90;;;8.40;99.90;;;;;;5094541;28;20168;-73
2023/04/02 02:12:14;;;;;;;19.97;16.10;;;8.30;99.90;;;;;;5094349;28;20217;-73
2023/04/02 02:14:49;;;;;;;21.07;17.20;;;8.20;99.90;;;;;;5094180;28;20220;-72
2023/04/02 02:17:17;;;;;;;20.37;16.30;;;8.20;99.90;;;;;;5094111;28;20172;-74
2023/04/02 02:19:48;;;;;;;21.53;16.87;;;8.20;99.90;;;;;;5094005;28;20224;-72
2023/04/02 02:22:32;;;;;;;20.00;15.97;;;8.20;99.90;;;;;;5094416;28;20168;-72
2023/04/02 02:25:01;;;;;;;19.03;15.70;;;8.30;99.90;;;;;;5094009;28;20532;-74
2023/04/02 02:27:27;;;;;;;22.00;16.77;;;8.30;99.90;;;;;;5094094;28;20187;-72
2023/04/02 02:29:54;;;;;;;18.73;15.77;;;8.10;99.90;;;;;;5094166;28;20164;-74
2023/04/02 02:32:24;;;;;;;17.83;14.43;;;8.10;99.90;;;;;;5093760;28;20233;-72
2023/04/02 02:35:06;;;;;;;19.83;15.10;;;8.10;99.90;;;;;;5093802;28;20632;-73
2023/04/02 02:37:42;;;;;;;17.53;14.40;;;8.20;99.90;;;;;;5093834;28;20168;-72
2023/04/02 02:40:17;;;;;;;18.37;13.93;;;8.20;99.90;;;;;;5093920;28;20207;-72
2023/04/02 02:42:50;;;;;;;15.10;12.80;;;8.10;99.90;;;;;;5093856;28;20540;-72
2023/04/02 02:45:20;;;;;;;14.80;13.10;;;8.10;99.90;;;;;;5093922;28;20167;-72
2023/04/02 02:47:47;;;;;;;16.73;14.10;;;8.10;99.90;;;;;;5093460;28;20176;-72
2023/04/02 02:50:25;;;;;;;17.20;13.33;;;8.00;99.90;;;;;;5093597;28;20160;-72
2023/04/02 02:52:53;;;;;;;18.13;14.47;;;8.00;99.90;;;;;;5093918;28;20164;-73
2023/04/02 02:55:36;;;;;;;17.50;14.27;;;8.00;99.90;;;;;;5093619;28;20194;-72
2023/04/02 02:58:09;;;;;;;18.33;14.77;;;8.00;99.90;;;;;;5093110;28;20168;-73
2023/04/02 03:00:38;;;;;;;18.57;14.80;;;7.90;99.90;;;;;;5092835;28;20188;-73
2023/04/02 03:03:08;;;;;;;18.73;14.97;;;7.90;99.90;;;;;;5093508;28;20168;-73
2023/04/02 03:05:34;;;;;;;20.40;15.47;;;7.90;99.90;;;;;;5093508;28;20171;-74
2023/04/02 03:08:03;;;;;;;19.47;14.43;;;7.90;99.90;;;;;;5093534;28;20643;-73
2023/04/02 03:11:01;;;;;;;19.17;14.83;;;7.90;99.90;;;;;;5093409;28;20160;-73
2023/04/02 03:13:37;;;;;;;17.90;14.53;;;7.90;99.90;;;;;;5093533;28;20206;-73
2023/04/02 03:16:22;;;;;;;19.13;15.30;;;7.90;99.90;;;;;;5092981;28;20194;-74
2023/04/02 03:19:20;;;;;;;20.03;15.43;;;7.90;99.90;;;;;;5092648;28;20220;-74
2023/04/02 03:21:54;;;;;;;19.37;15.80;;;7.90;99.90;;;;;;5088971;28;20198;-73
2023/04/02 03:24:58;;;;;;;21.10;16.40;;;7.90;99.90;;;;;;5093367;28;20171;-73
2023/04/02 03:27:31;;;;;;;19.77;14.87;;;7.90;99.90;;;;;;5093183;28;20251;-73
2023/04/02 03:30:04;;;;;;;20.13;16.40;;;7.70;99.90;;;;;;5093066;28;20251;-74
2023/04/02 03:32:33;;;;;;;23.37;18.27;;;7.70;99.90;;;;;;5093074;28;20266;-74
2023/04/02 03:35:07;;;;;;;22.03;17.03;;;7.70;99.90;;;;;;5093063;28;20176;-74
2023/04/02 03:37:45;;;;;;;20.07;16.67;;;7.70;99.90;;;;;;5093153;28;20188;-74
2023/04/02 03:40:23;;;;;;;21.13;17.73;;;7.70;99.90;;;;;;5092790;28;20208;-73
2023/04/02 03:43:05;;;;;;;25.87;19.03;;;7.70;99.90;;;;;;5092933;28;20187;-74
2023/04/02 03:45:48;;;;;;;23.33;17.80;;;7.80;99.90;;;;;;5092708;28;20167;-72
2023/04/02 03:48:25;;;;;;;23.40;18.13;;;7.80;99.90;;;;;;5092837;28;20523;-72
2023/04/02 03:51:01;;;;;;;23.43;17.33;;;7.80;99.90;;;;;;5092634;28;20183;-72
2023/04/02 03:53:28;;;;;;;21.77;17.57;;;7.80;99.90;;;;;;5092775;28;20167;-73
2023/04/02 03:55:56;;;;;;;21.87;17.50;;;7.70;99.90;;;;;;5092960;28;20627;-73
2023/04/02 03:58:36;;;;;;;23.93;18.00;;;7.70;99.90;;;;;;5092747;28;20562;-72
2023/04/02 04:01:27;;;;;;;26.80;19.50;;;7.60;99.90;;;;;;5094777;28;20170;-72
2023/04/02 04:03:56;;;;;;;24.50;18.77;;;7.60;99.90;;;;;;5096744;28;20175;-72
2023/04/02 04:06:33;;;;;;;25.00;19.13;;;7.60;99.90;;;;;;5096586;28;20171;-73
2023/04/02 04:09:29;;;;;;;26.93;19.83;;;7.60;99.90;;;;;;5096671;28;20175;-72
2023/04/02 04:12:09;;;;;;;29.23;20.10;;;7.60;99.90;;;;;;5096635;28;20200;-72
2023/04/02 04:14:39;;;;;;;28.83;20.20;;;7.60;99.90;;;;;;5096320;28;20594;-73
2023/04/02 04:17:08;;;;;;;29.13;21.30;;;7.50;99.90;;;;;;5096410;28;20271;-72
2023/04/02 04:19:47;;;;;;;27.47;21.10;;;7.60;99.90;;;;;;5095811;28;20227;-72
2023/04/02 04:22:30;;;;;;;26.87;19.67;;;7.60;99.90;;;;;;5096258;28;20210;-72
2023/04/02 04:24:57;;;;;;;25.63;18.90;;;7.60;99.90;;;;;;5096197;28;20180;-72
2023/04/02 04:27:41;;;;;;;25.07;20.20;;;7.60;99.90;;;;;;5095980;28;20172;-71
2023/04/02 04:30:28;;;;;;;27.07;19.87;;;7.50;99.90;;;;;;5096301;28;20172;-73
2023/04/02 04:33:00;;;;;;;27.70;20.17;;;7.50;99.90;;;;;;5096403;28;20176;-71
2023/04/02 04:35:52;;;;;;;29.93;20.87;;;7.50;99.90;;;;;;5095974;28;20168;-73
2023/04/02 04:38:31;;;;;;;27.60;19.33;;;7.40;99.90;;;;;;5096042;28;20245;-72
2023/04/02 04:41:04;;;;;;;27.57;20.30;;;7.40;99.90;;;;;;5096235;28;20163;-73
2023/04/02 04:43:45;;;;;;;27.63;20.30;;;7.40;99.90;;;;;;5095866;28;20251;-71
2023/04/02 04:46:26;;;;;;;30.67;22.20;;;7.40;99.90;;;;;;5095586;28;20170;-72
2023/04/02 04:49:09;;;;;;;31.90;22.17;;;7.50;99.90;;;;;;5095527;28;20242;-72
2023/04/02 04:51:44;;;;;;;30.57;21.90;;;7.50;99.90;;;;;;5095922;28;20198;-72
2023/04/02 04:54:12;;;;;;;34.10;23.20;;;7.50;99.90;;;;;;5095703;28;20696;-73
2023/04/02 04:56:39;;;;;;;34.70;23.77;;;7.60;99.90;;;;;;5095527;28;20623;-73
2023/04/02 04:59:12;;;;;;;30.07;19.93;;;7.50;99.90;;;;;;5095722;28;20297;-72
2023/04/02 05:01:40;;;;;;;31.93;22.27;;;7.50;99.90;;;;;;5095671;28;20179;-72
2023/04/02 05:04:33;;;;;;;33.47;21.77;;;7.50;99.90;;;;;;5095272;28;20619;-72
2023/04/02 05:07:11;;;;;;;36.27;21.50;;;7.50;99.90;;;;;;5095715;28;20229;-72
2023/04/02 05:09:59;;;;;;;32.47;22.10;;;7.50;99.90;;;;;;5095533;28;20247;-72
2023/04/02 05:12:44;;;;;;;31.13;21.17;;;7.60;99.90;;;;;;5094832;28;20168;-72
2023/04/02 05:15:31;;;;;;;32.13;21.87;;;7.50;99.90;;;;;;5095380;28;20172;-72
2023/04/02 05:18:16;;;;;;;34.70;22.70;;;7.40;99.90;;;;;;5095457;28;20531;-72
2023/04/02 05:21:00;;;;;;;36.30;24.77;;;7.30;99.90;;;;;;5055123;28;20286;-72
2023/04/02 05:23:30;;;;;;;33.63;24.20;;;7.30;99.90;;;;;;5054945;28;20246;-72
2023/04/02 05:26:18;;;;;;;36.23;25.13;;;7.20;99.90;;;;;;5054363;28;20173;-72
2023/04/02 05:28:58;;;;;;;38.47;25.53;;;7.20;99.90;;;;;;5054670;28;20189;-72
2023/04/02 05:31:43;;;;;;;37.70;24.57;;;7.30;99.90;;;;;;5054989;28;20169;-73
2023/04/02 05:34:11;;;;;;;33.60;24.03;;;7.20;99.90;;;;;;5054835;28;20671;-72
2023/04/02 05:36:38;;;;;;;34.47;21.17;;;7.20;99.90;;;;;;5054621;28;20267;-72
2023/04/02 05:39:08;;;;;;;28.50;21.57;;;7.20;99.90;;;;;;5054433;28;20217;-72
2023/04/02 05:41:44;;;;;;;26.77;19.23;;;7.10;99.90;;;;;;5054299;28;20239;-72
2023/04/02 05:44:28;;;;;;;28.10;20.77;;;7.20;99.90;;;;;;5054522;28;20308;-72
2023/04/02 05:46:56;;;;;;;26.00;18.63;;;7.10;99.90;;;;;;5054319;28;20173;-72
2023/04/02 05:49:40;;;;;;;28.40;21.27;;;7.20;99.90;;;;;;5053945;28;20296;-72
2023/04/02 05:52:15;;;;;;;23.77;18.03;;;7.10;99.90;;;;;;5054455;28;20193;-73
2023/04/02 05:54:50;;;;;;;29.03;21.07;;;7.00;99.90;;;;;;5054125;28;20168;-72
2023/04/02 05:57:26;;;;;;;26.77;20.43;;;6.90;99.90;;;;;;5052846;28;20511;-73
2023/04/02 05:59:56;;;;;;;26.00;19.77;;;6.90;99.90;;;;;;5054341;28;20254;-71
2023/04/02 06:02:41;;;;;;;27.60;20.03;;;6.90;99.90;;;;;;5054256;28;20177;-72
2023/04/02 06:05:21;;;;;;;25.77;20.13;;;7.00;99.90;;;;;;5054085;28;20177;-73
2023/04/02 06:07:59;;;;;;;25.33;19.07;;;7.00;99.90;;;;;;5054529;28;20542;-72
2023/04/02 06:10:28;;;;;;;26.53;19.80;;;6.90;99.90;;;;;;5053709;28;20181;-73
2023/04/02 06:13:02;;;;;;;25.57;19.60;;;7.00;99.90;;;;;;5053955;28;20166;-72
2023/04/02 06:15:30;;;;;;;21.53;17.90;;;6.90;99.90;;;;;;5054007;28;20703;-72
2023/04/02 06:18:12;;;;;;;23.70;16.40;;;6.90;99.90;;;;;;5053734;28;20231;-72
2023/04/02 06:20:38;;;;;;;25.33;18.13;;;7.00;99.90;;;;;;5053544;28;20193;-72
2023/04/02 06:23:17;;;;;;;23.10;16.80;;;7.00;99.90;;;;;;5052985;28;20664;-73
2023/04/02 06:25:54;;;;;;;26.10;19.73;;;6.90;99.90;;;;;;5053254;28;20632;-72
2023/04/02 06:28:46;;;;;;;26.37;20.20;;;7.00;99.90;;;;;;5053748;28;20165;-73
2023/04/02 06:31:35;;;;;;;27.73;21.17;;;6.90;99.90;;;;;;5054075;28;20195;-73
2023/04/02 06:34:02;;;;;;;28.17;21.13;;;6.80;99.90;;;;;;5053376;28;20208;-71
2023/04/02 06:36:28;;;;;;;26.43;17.03;;;6.80;99.90;;;;;;5053537;28;20177;-72
2023/04/02 06:39:05;;;;;;;28.80;21.23;;;6.80;99.90;;;;;;5052889;28;20208;-72
2023/04/02 06:41:31;;;;;;;31.67;22.57;;;6.80;99.90;;;;;;5053184;28;20178;-72
2023/04/02 06:44:01;;;;;;;28.80;20.77;;;6.80;99.90;;;;;;5053415;28;20189;-73
2023/04/02 06:46:31;;;;;;;32.63;21.43;;;6.70;99.90;;;;;;5053388;28;20208;-73
2023/04/02 06:49:23;;;;;;;29.83;21.17;;;6.70;99.90;;;;;;5053188;28;20180;-72
2023/04/02 06:51:53;;;;;;;26.33;20.33;;;6.70;99.90;;;;;;5044791;28;20259;-72
2023/04/02 06:54:19;;;;;;;25.63;17.87;;;6.80;99.90;;;;;;5053170;28;20169;-72
2023/04/02 06:56:50;;;;;;;25.53;19.67;;;6.80;99.90;;;;;;5053209;28;20219;-71
2023/04/02 06:59:17;;;;;;;26.40;19.03;;;6.80;99.90;;;;;;5052702;28;20204;-73
2023/04/02 07:01:48;;;;;;;23.90;17.60;;;6.90;99.90;;;;;;5052883;28;20201;-72
2023/04/02 07:04:14;;;;;;;25.37;19.10;;;7.00;99.90;;;;;;5053074;28;20636;-72
2023/04/02 07:06:40;;;;;;;22.47;17.73;;;6.90;99.90;;;;;;5053033;28;20264;-73
2023/04/02 07:09:06;;;;;;;21.93;18.53;;;6.90;99.90;;;;;;5052549;28;20280;-73
2023/04/02 07:11:31;;;;;;;19.90;16.60;;;7.00;99.90;;;;;;5052966;28;20173;-73
2023/04/02 07:13:57;;;;;;;22.27;15.47;;;6.90;99.90;;;;;;5052781;28;20647;-72
2023/04/02 07:16:24;;;;;;;19.60;16.50;;;6.90;99.90;;;;;;5053366;28;20609;-72
2023/04/02 07:18:51;;;;;;;19.07;16.10;;;6.90;99.90;;;;;;5066131;28;20232;-73
2023/04/02 07:21:16;;;;;;;19.90;17.03;;;7.00;99.90;;;;;;5092846;28;20180;-73
2023/04/02 07:23:42;;;;;;;19.03;16.60;;;7.10;99.90;;;;;;5074237;28;20198;-73
2023/04/02 07:26:15;;;;;;;20.80;17.50;;;7.20;99.90;;;;;;5074567;28;20211;-72
2023/04/02 07:28:41;;;;;;;21.80;17.70;;;7.20;99.90;;;;;;5093139;28;20172;-72
2023/04/02 07:31:32;;;;;;;21.13;16.80;;;7.20;99.90;;;;;;5093120;28;20176;-73
2023/04/02 07:33:59;;;;;;;24.57;19.47;;;7.10;99.90;;;;;;5089265;28;20639;-73
2023/04/02 07:36:27;;;;;;;21.20;17.03;;;7.20;99.90;;;;;;5095120;28;20631;-72
2023/04/02 07:38:53;;;;;;;22.30;16.33;;;7.10;99.90;;;;;;5097004;28;20199;-72
2023/04/02 07:41:19;;;;;;;19.87;15.67;;;7.00;99.90;;;;;;5096839;28;20245;-72
2023/04/02 07:43:45;;;;;;;25.43;18.93;;;6.80;99.90;;;;;;5097020;28;20646;-73
2023/04/02 07:46:13;;;;;;;25.87;18.10;;;6.70;99.90;;;;;;5097136;28;20171;-72
2023/04/02 07:48:39;;;;;;;24.07;18.17;;;6.70;99.90;;;;;;5096693;28;20519;-72
2023/04/02 07:51:20;;;;;;;23.03;17.63;;;6.70;99.90;;;;;;5096384;28;20260;-73
2023/04/02 07:53:49;;;;;;;17.63;14.60;;;6.70;99.90;;;;;;5096725;28;20168;-72
2023/04/02 07:56:18;;;;;;;18.73;15.00;;;6.60;99.90;;;;;;5096263;28;20164;-73
2023/04/02 07:58:44;;;;;;;16.27;13.73;;;6.60;99.90;;;;;;5096623;28;20202;-72
2023/04/02 08:01:23;;;;;;;23.70;16.57;;;6.60;99.90;;;;;;5096288;28;20164;-74
2023/04/02 08:03:49;;;;;;;22.53;17.13;;;6.60;99.90;;;;;;5096497;28;20229;-73
2023/04/02 08:06:15;;;;;;;25.13;18.23;;;6.70;99.90;;;;;;5096241;28;20247;-73
2023/04/02 08:08:41;;;;;;;26.23;19.03;;;6.70;99.90;;;;;;5096370;28;20202;-73
2023/04/02 08:11:07;;;;;;;25.00;19.63;;;6.80;99.90;;;;;;5095938;28;20180;-72
2023/04/02 08:13:33;;;;;;;28.97;18.13;;;6.80;99.90;;;;;;5096560;28;20171;-71
2023/04/02 08:16:00;;;;;;;29.00;20.20;;;6.80;99.90;;;;;;5095842;28;20163;-72
2023/04/02 08:18:26;;;;;;;29.20;20.87;;;6.70;99.90;;;;;;5095952;28;20243;-73
2023/04/02 08:20:52;;;;;;;27.17;20.23;;;6.60;99.90;;;;;;5095847;28;20164;-73
2023/04/02 08:23:18;;;;;;;23.87;17.93;;;6.60;99.90;;;;;;5096341;28;20160;-72
2023/04/02 08:25:46;;;;;;;25.83;19.17;;;6.60;99.90;;;;;;5095555;28;20266;-73
2023/04/02 08:28:12;;;;;;;28.43;21.03;;;6.60;99.90;;;;;;5096135;28;20623;-73
2023/04/02 08:30:38;;;;;;;30.30;21.03;;;6.70;99.90;;;;;;5096225;28;20179;-73
2023/04/02 08:33:04;;;;;;;26.60;20.63;;;6.80;99.90;;;;;;5096224;28;20211;-73
2023/04/02 08:35:30;;;;;;;24.73;20.17;;;6.80;99.90;;;;;;5095626;28;20580;-73
2023/04/02 08:37:55;;;;;;;28.73;19.83;;;6.90;99.90;;;;;;5095972;28;20495;-74
2023/04/02 08:40:27;;;;;;;26.17;18.30;;;6.90;99.90;;;;;;5095569;28;20269;-73
2023/04/02 08:43:22;;;;;;;29.93;21.47;;;6.80;99.90;;;;;;5095701;28;20164;-73
2023/04/02 08:46:12;;;;;;;30.63;21.00;;;6.80;99.90;;;;;;5094742;28;20248;-74
2023/04/02 08:48:42;;;;;;;28.87;19.50;;;6.90;99.90;;;;;;5095183;28;20168;-72
2023/04/02 08:51:20;;;;;;;27.47;20.17;;;6.80;99.90;;;;;;5095268;28;20187;-72
2023/04/02 08:53:46;;;;;;;27.43;20.43;;;6.80;99.90;;;;;;5095410;28;20313;-73
2023/04/02 08:56:18;;;;;;;26.70;20.17;;;6.80;99.90;;;;;;5095722;28;20172;-72
2023/04/02 08:58:48;;;;;;;30.63;20.73;;;6.80;99.90;;;;;;5094593;28;20674;-72
2023/04/02 09:01:41;;;;;;;29.07;21.30;;;6.90;99.90;;;;;;5095087;28;20187;-73
2023/04/02 09:04:15;;;;;;;26.77;20.30;;;7.00;99.90;;;;;;5095166;28;20164;-73
2023/04/02 09:06:42;;;;;;;27.23;20.80;;;7.00;99.90;;;;;;5095492;28;20252;-72
2023/04/02 09:09:10;;;;;;;25.23;17.77;;;7.00;99.90;;;;;;5095137;28;20164;-72
2023/04/02 09:11:59;;;;;;;24.57;18.60;;;6.90;99.90;;;;;;5095293;28;20203;-72
2023/04/02 09:14:43;;;;;;;28.93;19.90;;;6.80;99.90;;;;;;5094697;28;20168;-72
2023/04/02 09:17:18;;;;;;;29.90;21.23;;;6.90;99.90;;;;;;5095272;28;20196;-72
2023/04/02 09:20:01;;;;;;;28.07;18.77;;;6.80;99.90;;;;;;5094190;28;20226;-72
2023/04/02 09:22:32;;;;;;;25.47;18.50;;;6.70;99.90;;;;;;5095368;28;20265;-72
2023/04/02 09:24:59;;;;;;;26.77;19.67;;;6.50;99.90;;;;;;5094513;28;20249;-72
2023/04/02 09:27:35;;;;;;;27.73;19.10;;;6.50;99.90;;;;;;5094957;28;20194;-72
2023/04/02 09:30:28;;;;;;;29.90;20.30;;;6.50;99.90;;;;;;5094642;28;20653;-72
2023/04/02 09:32:56;;;;;;;28.27;19.83;;;6.60;99.90;;;;;;5094790;28;20301;-73
2023/04/02 09:35:28;;;;;;;30.03;19.07;;;6.80;99.90;;;;;;5094395;28;20270;-72
2023/04/02 09:38:08;;;;;;;30.90;20.50;;;6.60;99.90;;;;;;5094638;28;20312;-72
2023/04/02 09:40:58;;;;;;;26.90;20.00;;;6.50;99.90;;;;;;5094178;28;20318;-72
2023/04/02 09:43:28;;;;;;;28.13;20.47;;;6.50;99.90;;;;;;5095022;28;20314;-72
2023/04/02 09:46:16;;;;;;;23.87;18.50;;;6.60;99.90;;;;;;5094032;28;20175;-71
2023/04/02 09:48:48;;;;;;;22.23;16.53;;;6.60;99.90;;;;;;5093524;28;20173;-73
2023/04/02 09:51:24;;;;;;;19.13;15.20;;;6.50;99.90;;;;;;5094189;28;20188;-73
2023/04/02 09:54:01;;;;;;;21.13;15.53;;;6.40;99.90;;;;;;5094536;28;20256;-73
2023/04/02 09:56:32;;;;;;;20.00;15.03;;;6.50;99.90;;;;;;5094402;28;20228;-72
2023/04/02 09:59:12;;;;;;;17.87;14.10;;;6.30;99.90;;;;;;5093388;28;20277;-73
2023/04/02 10:01:43;;;;;;;20.70;15.37;;;6.30;99.90;;;;;;5093490;28;20232;-73
2023/04/02 10:04:45;;;;;;;22.37;14.67;;;6.30;99.90;;;;;;5094414;28;20208;-72
2023/04/02 10:07:36;;;;;;;16.70;13.27;;;6.40;99.90;;;;;;5075208;28;20540;-75
2023/04/02 10:10:29;;;;;;;19.73;14.23;;;6.40;99.90;;;;;;5094114;28;20167;-73
2023/04/02 10:13:06;;;;;;;13.37;11.93;;;6.50;99.90;;;;;;5093864;28;20195;-73
2023/04/02 10:15:49;;;;;;;13.27;10.37;;;6.70;99.90;;;;;;5093524;28;20213;-72
2023/04/02 10:18:36;;;;;;;10.63;9.43;;;6.60;99.90;;;;;;5093486;28;20174;-73
2023/04/02 10:21:03;;;;;;;12.07;10.27;;;6.50;99.90;;;;;;5093668;28;20269;-73
2023/04/02 10:23:30;;;;;;;11.30;9.97;;;6.50;99.90;;;;;;5094025;28;20180;-73
2023/04/02 10:26:19;;;;;;;15.00;10.80;;;6.50;99.90;;;;;;5092918;28;20236;-73
2023/04/02 10:29:13;;;;;;;15.40;11.07;;;6.50;99.90;;;;;;5093814;28;20171;-73
2023/04/02 10:31:54;;;;;;;9.87;8.43;;;6.70;99.90;;;;;;5093287;28;20156;-73
2023/04/02 10:34:30;;;;;;;7.77;6.97;;;6.60;99.90;;;;;;5093721;28;20160;-72
2023/04/02 10:37:05;;;;;;;11.73;7.93;;;6.50;99.90;;;;;;5093263;28;20267;-73
2023/04/02 10:39:30;;;;;;;8.63;7.60;;;6.60;99.90;;;;;;5093363;28;20677;-72
2023/04/02 10:42:17;;;;;;;8.63;7.13;;;6.60;99.90;;;;;;5093576;28;20164;-73
2023/04/02 10:45:22;;;;;;;9.00;7.90;;;6.70;99.90;;;;;;5092669;28;20164;-73
2023/04/02 10:47:56;;;;;;;8.57;7.67;;;6.80;99.90;;;;;;5092669;28;20637;-73
2023/04/02 10:50:25;;;;;;;9.90;7.27;;;6.90;99.90;;;;;;5092982;28;20235;-73
2023/04/02 10:53:30;;;;;;;7.63;6.87;;;6.90;99.90;;;;;;5093300;28;20630;-73
2023/04/02 10:56:02;;;;;;;8.20;7.13;;;7.00;99.90;;;;;;5082907;28;20172;-73
2023/04/02 10:58:32;;;;;;;8.97;7.30;;;7.10;99.90;;;;;;5092685;28;20164;-73
2023/04/02 11:01:03;;;;;;;8.13;5.13;;;7.30;99.90;;;;;;5092393;28;20208;-74
2023/04/02 11:04:04;;;;;;;8.10;6.37;;;7.30;99.90;;;;;;5093267;28;20312;-72
2023/04/02 11:06:52;;;;;;;4.10;3.73;;;7.20;99.90;;;;;;5010936;28;20642;-73
2023/04/02 11:09:25;;;;;;;6.87;5.43;;;7.10;99.90;;;;;;5010180;28;20225;-74
2023/04/02 11:11:54;;;;;;;5.17;4.50;;;7.10;99.90;;;;;;5010904;28;20175;-73
2023/04/02 11:14:25;;;;;;;6.50;5.90;;;7.10;99.90;;;;;;4994098;28;20709;-74
2023/04/02 11:16:52;;;;;;;5.70;5.20;;;7.20;99.90;;;;;;5011083;28;20182;-73
2023/04/02 11:19:18;;;;;;;6.20;5.60;;;7.50;99.90;;;;;;5010028;28;20355;-73
2023/04/02 11:21:45;;;;;;;7.10;5.70;;;7.40;99.90;;;;;;5010953;28;20381;-74
2023/04/02 11:24:31;;;;;;;10.07;6.97;;;7.40;99.90;;;;;;5010890;28;20212;-73
2023/04/02 11:27:15;;;;;;;11.30;7.00;;;7.40;99.90;;;;;;5010313;28;20265;-73
2023/04/02 11:29:56;;;;;;;7.77;6.90;;;7.60;99.90;;;;;;5010189;28;20265;-73
2023/04/02 11:32:26;;;;;;;5.80;5.20;;;7.40;99.90;;;;;;5011108;28;20241;-73
2023/04/02 11:34:54;;;;;;;6.80;5.50;;;7.20;99.90;;;;;;5010692;28;20178;-73
2023/04/02 11:37:37;;;;;;;7.50;5.90;;;7.40;99.90;;;;;;5010416;28;20178;-73
2023/04/02 11:40:12;;;;;;;7.33;6.17;;;7.30;99.90;;;;;;5010185;28;20206;-73
2023/04/02 11:42:42;;;;;;;11.10;5.77;;;7.20;99.90;;;;;;5057582;28;20709;-73
2023/04/02 11:45:22;;;;;;;8.43;6.20;;;7.00;99.90;;;;;;5072069;28;20172;-73
2023/04/02 11:47:59;;;;;;;9.13;6.10;;;7.00;99.90;;;;;;5071905;28;20172;-73
2023/04/02 11:50:32;;;;;;;8.13;6.93;;;6.90;99.90;;;;;;5072132;28;20572;-73
2023/04/02 11:53:22;;;;;;;11.47;6.70;;;7.00;99.90;;;;;;5072011;28;20169;-73
2023/04/02 11:55:57;;;;;;;8.10;6.03;;;7.20;99.90;;;;;;5072510;28;20704;-73
2023/04/02 11:58:50;;;;;;;6.47;5.37;;;7.20;99.90;;;;;;5071104;28;20180;-72
2023/04/02 12:01:34;;;;;;;6.03;5.40;;;7.30;99.90;;;;;;5072822;28;20180;-73
2023/04/02 12:04:30;;;;;;;6.20;5.50;;;7.30;99.90;;;;;;5072451;28;20165;-73
2023/04/02 12:07:09;;;;;;;7.10;4.60;;;7.30;99.90;;;;;;5072140;28;20203;-73
2023/04/02 12:09:44;;;;;;;6.13;5.53;;;7.10;99.90;;;;;;5072218;28;20161;-73
2023/04/02 12:12:23;;;;;;;8.87;5.80;;;7.00;99.90;;;;;;5071968;28;20225;-73
2023/04/02 12:14:56;;;;;;;6.87;5.40;;;7.10;99.90;;;;;;5072079;28;20185;-73
2023/04/02 12:17:28;;;;;;;5.93;5.00;;;7.30;99.90;;;;;;5070596;28;20176;-73
2023/04/02 12:19:57;;;;;;;6.30;4.80;;;7.30;99.90;;;;;;5087134;28;20651;-74
2023/04/02 12:22:26;;;;;;;4.17;3.70;;;7.50;99.90;;;;;;5094706;28;20255;-73
2023/04/02 12:24:57;;;;;;;6.20;5.20;;;7.40;99.90;;;;;;5096423;28;20183;-73
2023/04/02 12:27:26;;;;;;;5.27;4.57;;;7.30;99.90;;;;;;5095526;28;20167;-73
2023/04/02 12:29:53;;;;;;;6.10;4.90;;;7.30;99.90;;;;;;5096051;28;20175;-74
2023/04/02 12:32:29;;;;;;;5.53;4.53;;;7.40;99.90;;;;;;5096080;28;20167;-73
2023/04/02 12:35:03;;;;;;;8.90;4.83;;;7.50;99.90;;;;;;5095696;28;20195;-73
2023/04/02 12:37:29;;;;;;;4.83;4.27;;;7.60;99.90;;;;;;5095748;28;20337;-73
2023/04/02 12:39:59;;;;;;;7.57;5.03;;;7.70;99.90;;;;;;5095005;28;20522;-74
2023/04/02 12:42:33;;;;;;;6.60;4.20;;;7.70;99.90;;;;;;5094403;28;20247;-73
2023/04/02 12:45:00;;;;;;;4.93;4.03;;;7.80;99.90;;;;;;5095893;28;20584;-73
2023/04/02 12:47:26;;;;;;;5.33;4.20;;;7.50;99.90;;;;;;5095613;28;20201;-73
2023/04/02 12:49:54;;;;;;;4.60;4.17;;;7.60;99.90;;;;;;5095364;28;20165;-72
2023/04/02 12:52:23;;;;;;;6.43;4.83;;;7.40;99.90;;;;;;5095016;28;20221;-74
2023/04/02 12:54:52;;;;;;;6.50;4.07;;;7.30;99.90;;;;;;5095428;28;20225;-72
2023/04/02 12:57:20;;;;;;;4.97;4.40;;;7.40;99.90;;;;;;5094933;28;20184;-72
2023/04/02 12:59:46;;;;;;;5.90;4.23;;;7.50;99.90;;;;;;5095148;28;20206;-73
2023/04/02 13:02:23;;;;;;;7.47;4.67;;;7.50;99.90;;;;;;5095022;28;20179;-72
2023/04/02 13:04:55;;;;;;;4.77;4.23;;;7.40;99.90;;;;;;5095361;28;20174;-73
2023/04/02 13:07:24;;;;;;;6.20;4.43;;;7.60;99.90;;;;;;5095566;28;20164;-73
2023/04/02 13:09:55;;;;;;;4.63;4.23;;;7.60;99.90;;;;;;5094770;28;20221;-72
2023/04/02 13:12:36;;;;;;;6.70;4.40;;;7.70;99.90;;;;;;5095263;28;20642;-73
2023/04/02 13:15:21;;;;;;;5.50;4.70;;;7.50;99.90;;;;;;5094762;28;20182;-73
2023/04/02 13:18:00;;;;;;;5.77;4.57;;;7.30;99.90;;;;;;5094587;28;20263;-73
2023/04/02 13:20:42;;;;;;;5.37;4.87;;;7.40;99.90;;;;;;5094494;28;20227;-73